sensor_id;sensor_type;location;lat;lon;timestamp;pressure;altitude;pressure_sealevel;temperature;humidity
14393;BME280;7281;42.678;23.372;2023-02-21T00:00:33;95519.25;;;9.62;40.94
14393;BME280;7281;42.678;23.372;2023-02-21T00:03:19;95510.78;;;9.44;41.11
14393;BME280;7281;42.678;23.372;2023-02-21T00:06:07;95522.22;;;9.26;41.25
14393;BME280;7281;42.678;23.372;2023-02-21T00:08:53;95523.34;;;9.58;40.86
14393;BME280;7281;42.678;23.372;2023-02-21T00:11:42;95517.72;;;8.98;42.47
14393;BME280;7281;42.678;23.372;2023-02-21T00:14:27;95530.03;;;8.86;42.58
14393;BME280;7281;42.678;23.372;2023-02-21T00:17:13;95532.72;;;8.91;42.06
14393;BME280;7281;42.678;23.372;2023-02-21T00:19:58;95526.59;;;8.74;42.79
14393;BME280;7281;42.678;23.372;2023-02-21T00:22:44;95521.31;;;9.20;41.24
14393;BME280;7281;42.678;23.372;2023-02-21T00:25:31;95522.38;;;9.48;40.78
14393;BME280;7281;42.678;23.372;2023-02-21T00:28:16;95524.91;;;9.43;41.48
14393;BME280;7281;42.678;23.372;2023-02-21T00:31:03;95510.34;;;9.47;41.16
14393;BME280;7281;42.678;23.372;2023-02-21T00:33:50;95514.25;;;9.61;40.69
14393;BME280;7281;42.678;23.372;2023-02-21T00:36:36;95508.94;;;9.56;40.79
14393;BME280;7281;42.678;23.372;2023-02-21T00:39:22;95510.72;;;9.67;40.63
14393;BME280;7281;42.678;23.372;2023-02-21T00:42:08;95507.97;;;9.62;40.65
14393;BME280;7281;42.678;23.372;2023-02-21T00:44:53;95494.69;;;9.80;40.21
14393;BME280;7281;42.678;23.372;2023-02-21T00:47:39;95504.81;;;9.60;40.78
14393;BME280;7281;42.678;23.372;2023-02-21T00:50:24;95492.69;;;9.42;40.92
14393;BME280;7281;42.678;23.372;2023-02-21T00:53:09;95493.69;;;9.53;40.71
14393;BME280;7281;42.678;23.372;2023-02-21T00:55:54;95486.97;;;9.57;40.55
14393;BME280;7281;42.678;23.372;2023-02-21T00:58:40;95477.53;;;9.56;40.45
14393;BME280;7281;42.678;23.372;2023-02-21T01:01:25;95473.06;;;9.56;40.78
14393;BME280;7281;42.678;23.372;2023-02-21T01:04:10;95461.16;;;9.32;40.83
14393;BME280;7281;42.678;23.372;2023-02-21T01:06:56;95460.97;;;9.10;41.67
14393;BME280;7281;42.678;23.372;2023-02-21T01:09:41;95455.06;;;9.15;41.57
14393;BME280;7281;42.678;23.372;2023-02-21T01:12:27;95460.03;;;8.88;42.23
14393;BME280;7281;42.678;23.372;2023-02-21T01:15:14;95466.34;;;9.04;42.11
14393;BME280;7281;42.678;23.372;2023-02-21T01:17:59;95457.44;;;9.16;41.44
14393;BME280;7281;42.678;23.372;2023-02-21T01:20:45;95445.94;;;9.46;41.07
14393;BME280;7281;42.678;23.372;2023-02-21T01:23:32;95431.09;;;9.35;41.34
14393;BME280;7281;42.678;23.372;2023-02-21T01:26:18;95434.47;;;9.47;40.50
14393;BME280;7281;42.678;23.372;2023-02-21T01:29:04;95435.47;;;9.46;41.19
14393;BME280;7281;42.678;23.372;2023-02-21T01:31:49;95432.00;;;9.57;40.49
14393;BME280;7281;42.678;23.372;2023-02-21T01:34:37;95413.00;;;9.61;40.06
14393;BME280;7281;42.678;23.372;2023-02-21T01:37:23;95431.50;;;9.27;41.69
14393;BME280;7281;42.678;23.372;2023-02-21T01:40:13;95434.16;;;9.03;41.63
14393;BME280;7281;42.678;23.372;2023-02-21T01:43:00;95443.50;;;8.48;43.23
14393;BME280;7281;42.678;23.372;2023-02-21T01:45:48;95438.72;;;8.22;43.34
14393;BME280;7281;42.678;23.372;2023-02-21T01:48:34;95432.34;;;8.41;43.37
14393;BME280;7281;42.678;23.372;2023-02-21T01:51:24;95424.88;;;8.96;41.99
14393;BME280;7281;42.678;23.372;2023-02-21T01:54:11;95425.59;;;8.80;42.52
14393;BME280;7281;42.678;23.372;2023-02-21T01:56:58;95426.22;;;8.70;43.08
14393;BME280;7281;42.678;23.372;2023-02-21T01:59:47;95417.19;;;8.78;42.44
14393;BME280;7281;42.678;23.372;2023-02-21T02:02:50;95418.28;;;9.05;41.78
14393;BME280;7281;42.678;23.372;2023-02-21T02:05:38;95388.28;;;8.96;41.86
14393;BME280;7281;42.678;23.372;2023-02-21T02:08:28;95404.59;;;9.14;41.85
14393;BME280;7281;42.678;23.372;2023-02-21T02:36:45;95382.03;;;9.25;41.46
14393;BME280;7281;42.678;23.372;2023-02-21T02:39:23;95385.22;;;9.44;41.20
14393;BME280;7281;42.678;23.372;2023-02-21T02:44:36;95383.66;;;9.43;41.57
14393;BME280;7281;42.678;23.372;2023-02-21T02:47:10;95367.06;;;9.37;41.08
14393;BME280;7281;42.678;23.372;2023-02-21T02:49:42;95350.19;;;9.28;41.52
14393;BME280;7281;42.678;23.372;2023-02-21T02:52:10;95367.47;;;9.46;40.92
14393;BME280;7281;42.678;23.372;2023-02-21T02:54:37;95380.00;;;9.44;41.33
14393;BME280;7281;42.678;23.372;2023-02-21T02:57:06;95380.75;;;9.28;41.67
14393;BME280;7281;42.678;23.372;2023-02-21T02:59:39;95373.25;;;9.31;41.46
14393;BME280;7281;42.678;23.372;2023-02-21T03:02:43;95374.09;;;9.20;41.69
14393;BME280;7281;42.678;23.372;2023-02-21T03:05:24;95385.34;;;8.18;43.99
14393;BME280;7281;42.678;23.372;2023-02-21T03:10:49;95386.38;;;8.05;44.06
14393;BME280;7281;42.678;23.372;2023-02-21T03:13:38;95377.41;;;8.01;43.94
14393;BME280;7281;42.678;23.372;2023-02-21T03:16:34;95390.38;;;8.43;43.61
14393;BME280;7281;42.678;23.372;2023-02-21T03:19:06;95381.84;;;7.78;44.63
14393;BME280;7281;42.678;23.372;2023-02-21T03:22:09;95375.16;;;8.05;44.05
14393;BME280;7281;42.678;23.372;2023-02-21T03:24:38;95382.41;;;8.49;43.23
14393;BME280;7281;42.678;23.372;2023-02-21T03:27:07;95374.38;;;8.04;43.90
14393;BME280;7281;42.678;23.372;2023-02-21T03:29:45;95384.91;;;7.98;44.73
14393;BME280;7281;42.678;23.372;2023-02-21T03:32:19;95378.66;;;7.87;44.49
14393;BME280;7281;42.678;23.372;2023-02-21T03:34:48;95364.72;;;8.05;44.07
14393;BME280;7281;42.678;23.372;2023-02-21T03:37:38;95373.09;;;8.07;44.13
14393;BME280;7281;42.678;23.372;2023-02-21T03:40:30;95360.09;;;8.70;42.73
14393;BME280;7281;42.678;23.372;2023-02-21T03:43:01;95366.78;;;8.26;43.47
14393;BME280;7281;42.678;23.372;2023-02-21T03:45:33;95376.44;;;8.65;43.03
14393;BME280;7281;42.678;23.372;2023-02-21T03:48:11;95362.88;;;8.80;42.42
14393;BME280;7281;42.678;23.372;2023-02-21T03:50:50;95366.31;;;8.80;42.36
14393;BME280;7281;42.678;23.372;2023-02-21T03:53:18;95372.41;;;8.86;41.81
14393;BME280;7281;42.678;23.372;2023-02-21T03:55:45;95368.31;;;8.90;42.27
14393;BME280;7281;42.678;23.372;2023-02-21T03:58:17;95382.41;;;8.89;42.26
14393;BME280;7281;42.678;23.372;2023-02-21T04:00:44;95380.69;;;8.94;42.04
14393;BME280;7281;42.678;23.372;2023-02-21T04:03:12;95384.94;;;9.12;42.23
14393;BME280;7281;42.678;23.372;2023-02-21T04:05:59;95379.19;;;8.98;42.14
14393;BME280;7281;42.678;23.372;2023-02-21T04:08:27;95376.25;;;8.95;41.93
14393;BME280;7281;42.678;23.372;2023-02-21T04:10:54;95384.91;;;8.95;41.98
14393;BME280;7281;42.678;23.372;2023-02-21T04:13:24;95389.28;;;9.06;41.68
14393;BME280;7281;42.678;23.372;2023-02-21T04:15:53;95384.41;;;9.27;41.47
14393;BME280;7281;42.678;23.372;2023-02-21T04:18:20;95371.03;;;8.95;42.09
14393;BME280;7281;42.678;23.372;2023-02-21T04:20:50;95391.69;;;8.96;42.38
14393;BME280;7281;42.678;23.372;2023-02-21T04:23:19;95393.88;;;8.99;42.33
14393;BME280;7281;42.678;23.372;2023-02-21T04:25:46;95395.88;;;8.69;42.45
14393;BME280;7281;42.678;23.372;2023-02-21T04:28:20;95401.84;;;8.81;42.45
14393;BME280;7281;42.678;23.372;2023-02-21T04:30:47;95403.50;;;8.59;42.47
14393;BME280;7281;42.678;23.372;2023-02-21T04:33:15;95410.75;;;8.69;42.58
14393;BME280;7281;42.678;23.372;2023-02-21T04:35:41;95410.97;;;8.67;42.55
14393;BME280;7281;42.678;23.372;2023-02-21T04:38:17;95426.72;;;8.84;42.38
14393;BME280;7281;42.678;23.372;2023-02-21T04:40:44;95410.00;;;8.45;43.32
14393;BME280;7281;42.678;23.372;2023-02-21T04:43:10;95410.66;;;8.64;42.50
14393;BME280;7281;42.678;23.372;2023-02-21T04:45:37;95407.22;;;8.63;42.44
14393;BME280;7281;42.678;23.372;2023-02-21T04:48:04;95406.78;;;8.66;42.68
14393;BME280;7281;42.678;23.372;2023-02-21T04:50:31;95405.81;;;8.44;43.47
14393;BME280;7281;42.678;23.372;2023-02-21T04:52:58;95398.72;;;8.56;42.78
14393;BME280;7281;42.678;23.372;2023-02-21T04:55:25;95401.19;;;8.74;42.47
14393;BME280;7281;42.678;23.372;2023-02-21T04:57:52;95386.16;;;8.81;42.24
14393;BME280;7281;42.678;23.372;2023-02-21T05:00:18;95383.03;;;8.68;42.48
14393;BME280;7281;42.678;23.372;2023-02-21T05:03:03;95393.31;;;8.46;42.74
14393;BME280;7281;42.678;23.372;2023-02-21T05:05:29;95380.34;;;8.51;43.39
14393;BME280;7281;42.678;23.372;2023-02-21T05:07:56;95382.81;;;8.69;42.63
14393;BME280;7281;42.678;23.372;2023-02-21T05:10:23;95367.78;;;8.76;42.09
14393;BME280;7281;42.678;23.372;2023-02-21T05:13:02;95368.31;;;8.90;42.35
14393;BME280;7281;42.678;23.372;2023-02-21T05:15:29;95365.22;;;8.65;42.48
14393;BME280;7281;42.678;23.372;2023-02-21T05:17:55;95371.13;;;8.60;42.70
14393;BME280;7281;42.678;23.372;2023-02-21T05:20:22;95368.22;;;8.85;42.80
14393;BME280;7281;42.678;23.372;2023-02-21T05:22:49;95370.31;;;8.71;42.89
14393;BME280;7281;42.678;23.372;2023-02-21T05:25:18;95367.44;;;8.84;42.79
14393;BME280;7281;42.678;23.372;2023-02-21T05:27:45;95380.63;;;8.78;42.70
14393;BME280;7281;42.678;23.372;2023-02-21T05:30:16;95374.50;;;8.72;42.42
14393;BME280;7281;42.678;23.372;2023-02-21T05:32:43;95369.19;;;8.67;42.23
14393;BME280;7281;42.678;23.372;2023-02-21T05:35:12;95369.28;;;8.72;42.34
14393;BME280;7281;42.678;23.372;2023-02-21T05:37:39;95386.16;;;8.81;42.20
14393;BME280;7281;42.678;23.372;2023-02-21T05:40:06;95376.72;;;8.52;42.97
14393;BME280;7281;42.678;23.372;2023-02-21T05:42:35;95389.16;;;8.73;42.65
14393;BME280;7281;42.678;23.372;2023-02-21T05:45:03;95385.78;;;8.61;43.14
14393;BME280;7281;42.678;23.372;2023-02-21T05:47:33;95385.91;;;8.55;42.77
14393;BME280;7281;42.678;23.372;2023-02-21T05:50:00;95393.56;;;8.84;43.14
14393;BME280;7281;42.678;23.372;2023-02-21T05:52:27;95403.78;;;8.86;42.34
14393;BME280;7281;42.678;23.372;2023-02-21T05:54:54;95398.06;;;8.61;42.85
14393;BME280;7281;42.678;23.372;2023-02-21T05:57:21;95396.34;;;8.66;42.77
14393;BME280;7281;42.678;23.372;2023-02-21T05:59:48;95395.97;;;8.74;42.28
14393;BME280;7281;42.678;23.372;2023-02-21T06:02:14;95379.91;;;8.94;42.13
14393;BME280;7281;42.678;23.372;2023-02-21T06:04:41;95404.88;;;9.30;41.33
14393;BME280;7281;42.678;23.372;2023-02-21T06:07:08;95400.28;;;9.37;42.36
14393;BME280;7281;42.678;23.372;2023-02-21T06:09:35;95406.06;;;9.39;44.96
14393;BME280;7281;42.678;23.372;2023-02-21T06:12:02;95411.41;;;9.15;43.70
14393;BME280;7281;42.678;23.372;2023-02-21T06:14:29;95409.03;;;9.59;41.64
14393;BME280;7281;42.678;23.372;2023-02-21T06:16:55;95404.50;;;9.71;43.18
14393;BME280;7281;42.678;23.372;2023-02-21T06:19:22;95400.31;;;9.70;42.80
14393;BME280;7281;42.678;23.372;2023-02-21T06:21:49;95405.25;;;9.83;42.30
14393;BME280;7281;42.678;23.372;2023-02-21T06:24:16;95409.38;;;9.79;41.80
14393;BME280;7281;42.678;23.372;2023-02-21T06:26:43;95410.59;;;9.43;41.33
14393;BME280;7281;42.678;23.372;2023-02-21T06:29:10;95406.31;;;9.37;41.29
14393;BME280;7281;42.678;23.372;2023-02-21T06:31:37;95416.91;;;9.31;41.95
14393;BME280;7281;42.678;23.372;2023-02-21T06:34:04;95411.59;;;8.97;42.20
14393;BME280;7281;42.678;23.372;2023-02-21T06:36:31;95410.91;;;9.30;41.88
14393;BME280;7281;42.678;23.372;2023-02-21T06:38:58;95409.66;;;9.49;41.56
14393;BME280;7281;42.678;23.372;2023-02-21T06:41:28;95417.94;;;9.30;41.93
14393;BME280;7281;42.678;23.372;2023-02-21T06:43:56;95419.53;;;10.08;40.43
14393;BME280;7281;42.678;23.372;2023-02-21T06:46:26;95426.16;;;10.49;39.57
14393;BME280;7281;42.678;23.372;2023-02-21T06:48:54;95413.13;;;10.54;39.31
14393;BME280;7281;42.678;23.372;2023-02-21T06:51:21;95407.75;;;10.66;39.54
14393;BME280;7281;42.678;23.372;2023-02-21T06:53:56;95390.09;;;10.01;39.78
14393;BME280;7281;42.678;23.372;2023-02-21T06:56:23;95409.63;;;10.65;39.40
14393;BME280;7281;42.678;23.372;2023-02-21T06:58:51;95411.81;;;10.35;39.52
14393;BME280;7281;42.678;23.372;2023-02-21T07:01:19;95403.47;;;11.24;38.15
14393;BME280;7281;42.678;23.372;2023-02-21T07:03:45;95414.31;;;11.60;38.03
14393;BME280;7281;42.678;23.372;2023-02-21T07:06:13;95404.59;;;11.82;37.99
14393;BME280;7281;42.678;23.372;2023-02-21T07:08:40;95399.66;;;11.90;37.60
14393;BME280;7281;42.678;23.372;2023-02-21T07:11:08;95404.75;;;12.02;37.69
14393;BME280;7281;42.678;23.372;2023-02-21T07:13:35;95407.97;;;12.14;37.90
14393;BME280;7281;42.678;23.372;2023-02-21T07:16:03;95413.50;;;12.17;36.75
14393;BME280;7281;42.678;23.372;2023-02-21T07:18:30;95406.25;;;12.30;37.16
14393;BME280;7281;42.678;23.372;2023-02-21T07:20:57;95409.28;;;12.11;36.55
14393;BME280;7281;42.678;23.372;2023-02-21T07:23:24;95417.53;;;12.30;37.06
14393;BME280;7281;42.678;23.372;2023-02-21T07:25:51;95390.72;;;12.28;36.63
14393;BME280;7281;42.678;23.372;2023-02-21T07:28:18;95392.78;;;12.21;36.95
14393;BME280;7281;42.678;23.372;2023-02-21T07:30:45;95395.22;;;12.33;36.82
14393;BME280;7281;42.678;23.372;2023-02-21T07:33:12;95384.47;;;12.39;37.28
14393;BME280;7281;42.678;23.372;2023-02-21T07:35:39;95388.28;;;12.63;37.06
14393;BME280;7281;42.678;23.372;2023-02-21T07:38:06;95380.91;;;12.55;37.01
14393;BME280;7281;42.678;23.372;2023-02-21T07:40:33;95383.84;;;12.69;36.99
14393;BME280;7281;42.678;23.372;2023-02-21T07:42:59;95381.56;;;12.87;36.74
14393;BME280;7281;42.678;23.372;2023-02-21T07:45:27;95378.97;;;12.92;36.97
14393;BME280;7281;42.678;23.372;2023-02-21T07:47:54;95372.53;;;12.68;35.91
14393;BME280;7281;42.678;23.372;2023-02-21T07:50:21;95365.16;;;12.65;35.76
14393;BME280;7281;42.678;23.372;2023-02-21T07:52:49;95378.47;;;13.00;35.67
14393;BME280;7281;42.678;23.372;2023-02-21T07:55:16;95358.56;;;13.30;35.48
14393;BME280;7281;42.678;23.372;2023-02-21T07:57:44;95362.53;;;13.42;35.74
14393;BME280;7281;42.678;23.372;2023-02-21T08:00:11;95360.16;;;13.31;36.14
14393;BME280;7281;42.678;23.372;2023-02-21T08:02:48;95361.16;;;13.19;35.41
14393;BME280;7281;42.678;23.372;2023-02-21T08:05:16;95357.53;;;13.36;35.89
14393;BME280;7281;42.678;23.372;2023-02-21T08:07:43;95345.44;;;13.50;35.67
14393;BME280;7281;42.678;23.372;2023-02-21T08:10:11;95353.34;;;13.55;35.56
14393;BME280;7281;42.678;23.372;2023-02-21T08:12:38;95345.41;;;13.35;35.06
14393;BME280;7281;42.678;23.372;2023-02-21T08:15:05;95352.28;;;13.56;35.97
14393;BME280;7281;42.678;23.372;2023-02-21T08:17:32;95345.44;;;13.50;35.61
14393;BME280;7281;42.678;23.372;2023-02-21T08:19:58;95341.22;;;13.59;35.35
14393;BME280;7281;42.678;23.372;2023-02-21T08:22:25;95346.50;;;13.59;35.13
14393;BME280;7281;42.678;23.372;2023-02-21T08:24:52;95343.59;;;13.50;35.46
14393;BME280;7281;42.678;23.372;2023-02-21T08:27:19;95350.19;;;13.53;35.09
14393;BME280;7281;42.678;23.372;2023-02-21T08:29:48;95339.13;;;13.46;34.53
14393;BME280;7281;42.678;23.372;2023-02-21T08:32:17;95346.22;;;13.85;34.86
14393;BME280;7281;42.678;23.372;2023-02-21T08:34:45;95334.91;;;13.95;34.32
14393;BME280;7281;42.678;23.372;2023-02-21T08:37:12;95321.97;;;13.98;34.39
14393;BME280;7281;42.678;23.372;2023-02-21T08:39:50;95332.22;;;14.20;34.15
14393;BME280;7281;42.678;23.372;2023-02-21T08:42:18;95318.00;;;14.31;34.77
14393;BME280;7281;42.678;23.372;2023-02-21T08:44:45;95328.53;;;14.41;34.18
14393;BME280;7281;42.678;23.372;2023-02-21T08:47:14;95326.91;;;14.50;34.09
14393;BME280;7281;42.678;23.372;2023-02-21T08:49:46;95326.38;;;14.53;34.32
14393;BME280;7281;42.678;23.372;2023-02-21T08:52:15;95329.56;;;14.40;34.55
14393;BME280;7281;42.678;23.372;2023-02-21T08:54:43;95323.09;;;14.76;33.70
14393;BME280;7281;42.678;23.372;2023-02-21T08:57:10;95331.53;;;14.83;34.04
14393;BME280;7281;42.678;23.372;2023-02-21T08:59:41;95322.59;;;14.79;33.53
14393;BME280;7281;42.678;23.372;2023-02-21T09:02:15;95319.69;;;14.76;32.96
14393;BME280;7281;42.678;23.372;2023-02-21T09:04:45;95329.47;;;14.70;33.27
14393;BME280;7281;42.678;23.372;2023-02-21T09:07:14;95317.16;;;15.04;33.62
14393;BME280;7281;42.678;23.372;2023-02-21T09:09:42;95312.94;;;15.08;33.52
14393;BME280;7281;42.678;23.372;2023-02-21T09:12:10;95281.75;;;15.15;33.35
14393;BME280;7281;42.678;23.372;2023-02-21T09:14:39;95295.38;;;15.33;33.18
14393;BME280;7281;42.678;23.372;2023-02-21T09:17:11;95294.97;;;15.49;33.02
14393;BME280;7281;42.678;23.372;2023-02-21T09:19:38;95299.34;;;15.64;33.07
14393;BME280;7281;42.678;23.372;2023-02-21T09:22:07;95294.28;;;16.01;33.05
14393;BME280;7281;42.678;23.372;2023-02-21T09:24:34;95298.19;;;15.80;31.78
14393;BME280;7281;42.678;23.372;2023-02-21T09:27:02;95298.81;;;15.67;32.19
14393;BME280;7281;42.678;23.372;2023-02-21T09:29:30;95289.81;;;15.68;32.02
14393;BME280;7281;42.678;23.372;2023-02-21T09:32:11;95301.09;;;15.45;32.20
14393;BME280;7281;42.678;23.372;2023-02-21T09:34:38;95290.53;;;15.45;31.45
14393;BME280;7281;42.678;23.372;2023-02-21T09:37:05;95284.53;;;16.25;32.19
14393;BME280;7281;42.678;23.372;2023-02-21T09:39:32;95286.44;;;16.67;30.20
14393;BME280;7281;42.678;23.372;2023-02-21T09:41:59;95265.72;;;16.74;31.11
14393;BME280;7281;42.678;23.372;2023-02-21T09:44:27;95262.38;;;17.05;30.87
14393;BME280;7281;42.678;23.372;2023-02-21T09:47:05;95259.94;;;17.28;30.28
14393;BME280;7281;42.678;23.372;2023-02-21T09:49:36;95266.59;;;17.76;29.95
14393;BME280;7281;42.678;23.372;2023-02-21T09:52:09;95239.44;;;17.52;29.48
14393;BME280;7281;42.678;23.372;2023-02-21T09:54:45;95257.03;;;18.07;29.63
14393;BME280;7281;42.678;23.372;2023-02-21T09:57:17;95228.28;;;18.41;28.46
14393;BME280;7281;42.678;23.372;2023-02-21T09:59:44;95251.09;;;17.83;28.49
14393;BME280;7281;42.678;23.372;2023-02-21T10:02:31;95245.91;;;17.78;28.22
14393;BME280;7281;42.678;23.372;2023-02-21T10:10:48;95224.22;;;19.20;27.22
14393;BME280;7281;42.678;23.372;2023-02-21T10:13:53;95217.88;;;18.58;27.28
14393;BME280;7281;42.678;23.372;2023-02-21T10:16:20;95220.56;;;18.94;26.75
14393;BME280;7281;42.678;23.372;2023-02-21T10:21:31;95211.28;;;19.27;27.07
14393;BME280;7281;42.678;23.372;2023-02-21T10:24:02;95205.72;;;19.15;26.45
14393;BME280;7281;42.678;23.372;2023-02-21T10:26:37;95198.69;;;19.55;26.57
14393;BME280;7281;42.678;23.372;2023-02-21T10:29:20;95193.09;;;20.26;26.14
14393;BME280;7281;42.678;23.372;2023-02-21T10:31:53;95187.41;;;20.58;26.21
14393;BME280;7281;42.678;23.372;2023-02-21T10:34:25;95184.56;;;20.46;25.98
14393;BME280;7281;42.678;23.372;2023-02-21T10:37:10;95187.53;;;20.45;25.03
14393;BME280;7281;42.678;23.372;2023-02-21T10:39:49;95171.25;;;20.46;24.59
14393;BME280;7281;42.678;23.372;2023-02-21T10:42:46;95158.88;;;20.50;24.74
14393;BME280;7281;42.678;23.372;2023-02-21T10:45:11;95163.28;;;20.80;24.86
14393;BME280;7281;42.678;23.372;2023-02-21T10:48:06;95141.25;;;21.05;24.04
14393;BME280;7281;42.678;23.372;2023-02-21T10:53:46;95148.66;;;20.18;23.55
14393;BME280;7281;42.678;23.372;2023-02-21T10:58:49;95132.91;;;20.81;24.00
14393;BME280;7281;42.678;23.372;2023-02-21T11:01:22;95123.66;;;21.13;24.48
14393;BME280;7281;42.678;23.372;2023-02-21T11:04:22;95115.38;;;21.14;22.02
14393;BME280;7281;42.678;23.372;2023-02-21T11:06:56;95116.13;;;21.15;21.42
14393;BME280;7281;42.678;23.372;2023-02-21T11:12:16;95095.94;;;21.14;19.94
14393;BME280;7281;42.678;23.372;2023-02-21T11:17:23;95083.41;;;21.61;20.78
14393;BME280;7281;42.678;23.372;2023-02-21T11:22:37;95076.00;;;21.75;20.11
14393;BME280;7281;42.678;23.372;2023-02-21T11:25:15;95077.03;;;21.45;19.59
14393;BME280;7281;42.678;23.372;2023-02-21T11:27:58;95076.13;;;21.87;19.53
14393;BME280;7281;42.678;23.372;2023-02-21T11:30:27;95070.47;;;21.34;19.13
14393;BME280;7281;42.678;23.372;2023-02-21T11:32:56;95071.50;;;21.58;19.70
14393;BME280;7281;42.678;23.372;2023-02-21T11:35:27;95067.72;;;21.97;20.44
14393;BME280;7281;42.678;23.372;2023-02-21T11:38:02;95059.06;;;21.71;19.45
14393;BME280;7281;42.678;23.372;2023-02-21T11:40:42;95069.53;;;21.30;19.49
14393;BME280;7281;42.678;23.372;2023-02-21T11:43:24;95058.00;;;21.08;19.29
14393;BME280;7281;42.678;23.372;2023-02-21T11:48:28;95051.44;;;21.52;19.37
14393;BME280;7281;42.678;23.372;2023-02-21T11:51:04;95036.88;;;21.50;19.44
14393;BME280;7281;42.678;23.372;2023-02-21T11:53:38;95034.47;;;21.65;19.21
14393;BME280;7281;42.678;23.372;2023-02-21T12:01:21;95016.88;;;22.43;18.57
14393;BME280;7281;42.678;23.372;2023-02-21T12:09:18;95008.31;;;22.58;18.62
14393;BME280;7281;42.678;23.372;2023-02-21T12:12:12;94998.25;;;22.14;19.22
14393;BME280;7281;42.678;23.372;2023-02-21T12:17:41;94989.53;;;23.11;18.04
14393;BME280;7281;42.678;23.372;2023-02-21T12:20:32;94990.34;;;21.97;19.05
14393;BME280;7281;42.678;23.372;2023-02-21T12:23:10;94977.47;;;22.40;18.95
14393;BME280;7281;42.678;23.372;2023-02-21T12:26:45;94971.44;;;22.84;18.56
14393;BME280;7281;42.678;23.372;2023-02-21T12:34:53;94969.31;;;23.47;18.24
14393;BME280;7281;42.678;23.372;2023-02-21T12:40:28;94950.69;;;24.38;18.25
14393;BME280;7281;42.678;23.372;2023-02-21T12:48:34;94939.53;;;24.91;17.35
14393;BME280;7281;42.678;23.372;2023-02-21T12:51:17;94931.66;;;25.61;16.92
14393;BME280;7281;42.678;23.372;2023-02-21T12:54:02;94939.44;;;25.66;16.71
14393;BME280;7281;42.678;23.372;2023-02-21T12:56:35;94931.81;;;25.68;16.64
14393;BME280;7281;42.678;23.372;2023-02-21T12:59:29;94939.78;;;24.86;16.88
14393;BME280;7281;42.678;23.372;2023-02-21T13:02:04;94933.47;;;25.26;16.74
14393;BME280;7281;42.678;23.372;2023-02-21T13:04:44;94936.66;;;24.84;17.05
14393;BME280;7281;42.678;23.372;2023-02-21T13:07:19;94935.00;;;25.73;16.38
14393;BME280;7281;42.678;23.372;2023-02-21T13:09:53;94930.03;;;26.64;15.67
14393;BME280;7281;42.678;23.372;2023-02-21T13:12:32;94931.13;;;26.40;15.85
14393;BME280;7281;42.678;23.372;2023-02-21T13:17:56;94931.91;;;24.50;17.04
14393;BME280;7281;42.678;23.372;2023-02-21T13:20:28;94914.53;;;25.50;16.56
14393;BME280;7281;42.678;23.372;2023-02-21T13:26:36;94912.28;;;25.21;16.50
14393;BME280;7281;42.678;23.372;2023-02-21T13:29:17;94902.44;;;25.25;16.54
14393;BME280;7281;42.678;23.372;2023-02-21T13:31:45;94905.88;;;26.26;16.06
14393;BME280;7281;42.678;23.372;2023-02-21T13:34:18;94900.75;;;26.21;16.01
14393;BME280;7281;42.678;23.372;2023-02-21T13:36:49;94904.97;;;26.02;16.03
14393;BME280;7281;42.678;23.372;2023-02-21T13:39:20;94907.13;;;25.78;16.17
14393;BME280;7281;42.678;23.372;2023-02-21T13:41:51;94911.66;;;27.08;15.41
14393;BME280;7281;42.678;23.372;2023-02-21T13:44:25;94899.09;;;27.90;14.84
14393;BME280;7281;42.678;23.372;2023-02-21T13:47:10;94895.69;;;28.23;14.60
14393;BME280;7281;42.678;23.372;2023-02-21T13:49:51;94887.47;;;28.12;14.39
14393;BME280;7281;42.678;23.372;2023-02-21T14:08:52;94872.78;;;29.63;13.72
14393;BME280;7281;42.678;23.372;2023-02-21T14:16:46;94867.47;;;28.46;14.24
14393;BME280;7281;42.678;23.372;2023-02-21T14:19:19;94877.78;;;28.08;14.92
14393;BME280;7281;42.678;23.372;2023-02-21T14:21:54;94864.38;;;27.55;14.64
14393;BME280;7281;42.678;23.372;2023-02-21T14:24:25;94868.13;;;26.79;15.08
14393;BME280;7281;42.678;23.372;2023-02-21T14:26:55;94878.03;;;26.75;15.01
14393;BME280;7281;42.678;23.372;2023-02-21T14:32:14;94852.25;;;25.75;15.65
14393;BME280;7281;42.678;23.372;2023-02-21T14:37:37;94867.88;;;26.46;15.67
14393;BME280;7281;42.678;23.372;2023-02-21T14:44:04;94868.53;;;26.62;14.87
14393;BME280;7281;42.678;23.372;2023-02-21T14:57:39;94866.16;;;25.81;15.22
14393;BME280;7281;42.678;23.372;2023-02-21T15:00:52;94866.97;;;25.16;15.81
14393;BME280;7281;42.678;23.372;2023-02-21T15:08:39;94862.16;;;24.47;16.87
14393;BME280;7281;42.678;23.372;2023-02-21T15:11:18;94861.28;;;24.15;16.97
14393;BME280;7281;42.678;23.372;2023-02-21T15:13:46;94872.06;;;23.91;17.03
14393;BME280;7281;42.678;23.372;2023-02-21T15:16:14;94871.69;;;23.53;17.29
14393;BME280;7281;42.678;23.372;2023-02-21T15:19:00;94869.94;;;23.45;17.42
14393;BME280;7281;42.678;23.372;2023-02-21T15:21:27;94871.41;;;23.30;17.08
14393;BME280;7281;42.678;23.372;2023-02-21T15:24:10;94876.81;;;23.22;17.58
14393;BME280;7281;42.678;23.372;2023-02-21T15:26:38;94876.81;;;22.97;17.60
14393;BME280;7281;42.678;23.372;2023-02-21T15:29:08;94875.56;;;22.59;17.98
14393;BME280;7281;42.678;23.372;2023-02-21T15:31:41;94886.59;;;22.49;17.95
14393;BME280;7281;42.678;23.372;2023-02-21T15:34:18;94874.09;;;22.61;18.26
14393;BME280;7281;42.678;23.372;2023-02-21T15:36:57;94885.28;;;22.55;18.05
14393;BME280;7281;42.678;23.372;2023-02-21T15:39:31;94887.91;;;22.63;18.02
14393;BME280;7281;42.678;23.372;2023-02-21T15:42:01;94887.91;;;22.43;18.19
14393;BME280;7281;42.678;23.372;2023-02-21T15:44:39;94890.47;;;22.39;18.43
14393;BME280;7281;42.678;23.372;2023-02-21T15:47:12;94900.44;;;22.30;18.04
14393;BME280;7281;42.678;23.372;2023-02-21T15:49:52;94897.75;;;22.18;18.56
14393;BME280;7281;42.678;23.372;2023-02-21T15:52:35;94905.97;;;22.13;18.25
14393;BME280;7281;42.678;23.372;2023-02-21T15:55:27;94897.50;;;22.11;18.08
14393;BME280;7281;42.678;23.372;2023-02-21T15:58:25;94892.53;;;22.01;18.61
14393;BME280;7281;42.678;23.372;2023-02-21T16:01:21;94892.53;;;22.01;18.34